createdAt,value
2023-04-01T00:00:34.021Z,99067.63
2023-04-01T00:03:02.508Z,99059.56
2023-04-01T00:05:30.417Z,99062.28
2023-04-01T00:07:58.257Z,99059.84
2023-04-01T00:10:26.133Z,99063.63
2023-04-01T00:12:54.339Z,99055.56
2023-04-01T00:15:23.511Z,99060.13
2023-04-01T00:17:51.220Z,99065.31
2023-04-01T00:20:19.308Z,99060.97
2023-04-01T00:22:47.772Z,99062.06
2023-04-01T00:25:15.730Z,99059.34
2023-04-01T00:27:44.245Z,99062.06
2023-04-01T00:30:12.614Z,99042.59
2023-04-01T00:32:41.844Z,99057.59
2023-04-01T00:35:10.343Z,99060.06
2023-04-01T00:37:40.400Z,99061.16
2023-04-01T00:40:26.064Z,99047.00
2023-04-01T00:42:53.780Z,99063.78
2023-04-01T00:45:33.753Z,99056.66
2023-04-01T00:48:08.034Z,99050.47
2023-04-01T00:50:37.781Z,99062.19
2023-04-01T00:53:07.480Z,99056.94
2023-04-01T00:55:39.479Z,99061.28
2023-04-01T00:58:15.124Z,99057.06
2023-04-01T01:00:43.806Z,99063.34
2023-04-01T01:03:13.675Z,99058.91
2023-04-01T01:06:01.084Z,99059.84
2023-04-01T01:08:37.721Z,99054.56
2023-04-01T01:11:10.400Z,99054.50
2023-04-01T01:13:45.831Z,99051.72
2023-04-01T01:16:22.550Z,99051.66
2023-04-01T01:19:00.088Z,99047.31
2023-04-01T01:22:07.292Z,99044.66
2023-04-01T01:24:56.903Z,99041.19
2023-04-01T01:27:25.789Z,99033.97
2023-04-01T01:30:19.807Z,99038.34
2023-04-01T01:33:12.619Z,99033.91
2023-04-01T01:35:44.057Z,99036.66
2023-04-01T01:38:15.695Z,99034.34
2023-04-01T01:40:46.303Z,99032.72
2023-04-01T01:43:18.394Z,99025.63
2023-04-01T01:45:51.084Z,99027.25
2023-04-01T01:48:19.735Z,99034.47
2023-04-01T01:50:50.588Z,99033.56
2023-04-01T01:53:18.647Z,99037.09
2023-04-01T01:55:48.663Z,99034.34
2023-04-01T01:58:21.916Z,99047.69
2023-04-01T02:00:55.137Z,99037.13
2023-04-01T02:03:25.710Z,99039.69
2023-04-01T02:05:58.291Z,99036.31
2023-04-01T02:08:30.549Z,99036.28
2023-04-01T02:11:02.224Z,99033.56
2023-04-01T02:13:33.680Z,99037.03
2023-04-01T02:16:08.497Z,99047.66
2023-04-01T02:18:39.159Z,99042.13
2023-04-01T02:21:10.148Z,99048.41
2023-04-01T02:23:39.947Z,99049.41
2023-04-01T02:26:10.693Z,99053.00
2023-04-01T02:28:41.144Z,99060.94
2023-04-01T02:31:11.962Z,99058.34
2023-04-01T02:33:41.395Z,99059.19
2023-04-01T02:36:14.253Z,99066.34
2023-04-01T02:38:53.971Z,99071.63
2023-04-01T02:41:21.979Z,99063.63
2023-04-01T02:43:49.709Z,99066.47
2023-04-01T02:46:17.497Z,99074.34
2023-04-01T02:48:45.274Z,99071.88
2023-04-01T02:51:15.521Z,99069.25
2023-04-01T02:53:44.487Z,99076.50
2023-04-01T02:56:12.703Z,99079.09
2023-04-01T02:58:40.409Z,99078.31
2023-04-01T03:01:09.225Z,99078.19
2023-04-01T03:03:37.094Z,99080.84
2023-04-01T03:06:07.899Z,99079.94
2023-04-01T03:08:37.185Z,99077.25
2023-04-01T03:11:05.029Z,99073.75
2023-04-01T03:13:32.714Z,99075.63
2023-04-01T03:16:00.496Z,99084.50
2023-04-01T03:18:28.426Z,99085.28
2023-04-01T03:20:56.122Z,99082.78
2023-04-01T03:23:25.284Z,99081.88
2023-04-01T03:25:54.539Z,99080.13
2023-04-01T03:28:22.274Z,99093.56
2023-04-01T03:30:50.092Z,99092.56
2023-04-01T03:33:18.287Z,99094.38
2023-04-01T03:35:46.048Z,99097.13
2023-04-01T03:38:13.754Z,99093.47
2023-04-01T03:40:44.327Z,99088.94
2023-04-01T03:43:13.840Z,99093.34
2023-04-01T03:45:46.311Z,99088.06
2023-04-01T03:48:14.058Z,99098.81
2023-04-01T03:50:42.372Z,99103.19
2023-04-01T03:53:10.123Z,99098.75
2023-04-01T03:55:38.632Z,99098.84
2023-04-01T03:58:07.361Z,99095.25
2023-04-01T04:00:36.975Z,99090.75
2023-04-01T04:03:05.554Z,99096.16
2023-04-01T04:05:33.637Z,99104.19
2023-04-01T04:08:01.523Z,99104.19
2023-04-01T04:10:30.179Z,99110.47
2023-04-01T04:12:58.659Z,99102.34
2023-04-01T04:15:26.408Z,99109.56
2023-04-01T04:17:55.558Z,99108.59
2023-04-01T04:20:23.354Z,99111.31
2023-04-01T04:22:51.146Z,99117.66
2023-04-01T04:25:19.164Z,99111.38
2023-04-01T04:27:46.888Z,99117.69
2023-04-01T04:30:15.300Z,99123.94
2023-04-01T04:32:43.244Z,99118.66
2023-04-01T04:35:12.403Z,99120.44
2023-04-01T04:37:40.189Z,99124.75
2023-04-01T04:40:09.687Z,99122.84
2023-04-01T04:42:37.552Z,99124.63
2023-04-01T04:45:06.403Z,99129.97
2023-04-01T04:47:34.168Z,99125.72
2023-04-01T04:50:01.884Z,99122.19
2023-04-01T04:52:31.067Z,99124.00
2023-04-01T04:54:58.819Z,99131.00
2023-04-01T04:57:26.588Z,99127.34
2023-04-01T04:59:54.340Z,99130.09
2023-04-01T05:02:22.066Z,99132.75
2023-04-01T05:04:50.041Z,99131.84
2023-04-01T05:07:18.234Z,99130.94
2023-04-01T05:09:47.957Z,99131.06
2023-04-01T05:12:15.694Z,99140.03
2023-04-01T05:14:43.560Z,99132.94
2023-04-01T05:17:12.311Z,99141.69
2023-04-01T05:19:40.661Z,99143.59
2023-04-01T05:22:08.656Z,99144.41
2023-04-01T05:24:36.551Z,99142.63
2023-04-01T05:27:05.736Z,99148.06
2023-04-01T05:29:33.492Z,99154.22
2023-04-01T05:32:01.611Z,99154.19
2023-04-01T05:34:29.318Z,99153.31
2023-04-01T05:36:57.673Z,99154.13
2023-04-01T05:39:25.568Z,99149.59
2023-04-01T05:41:53.301Z,99153.19
2023-04-01T05:44:22.456Z,99166.56
2023-04-01T05:46:50.279Z,99162.06
2023-04-01T05:49:18.231Z,99162.94
2023-04-01T05:51:46.029Z,99157.75
2023-04-01T05:54:13.845Z,99167.59
2023-04-01T05:56:41.577Z,99166.72
2023-04-01T05:59:09.319Z,99160.44
2023-04-01T06:01:38.488Z,99162.25
2023-04-01T06:04:06.549Z,99162.31
2023-04-01T06:06:34.667Z,99176.34
2023-04-01T06:09:14.241Z,99174.53
2023-04-01T06:11:58.041Z,99175.44
2023-04-01T06:14:36.019Z,99167.47
2023-04-01T06:17:20.916Z,99173.63
2023-04-01T06:19:54.539Z,99180.84
2023-04-01T06:22:44.117Z,99177.06
2023-04-01T06:25:38.571Z,99174.34
2023-04-01T06:28:38.163Z,99184.16
2023-04-01T06:31:12.920Z,99188.72
2023-04-01T06:33:58.706Z,99190.44
2023-04-01T06:36:41.713Z,99193.91
2023-04-01T06:39:40.615Z,99200.94
2023-04-01T06:42:37.135Z,99201.91
2023-04-01T06:45:14.155Z,99200.91
2023-04-01T06:47:58.298Z,99202.66
2023-04-01T06:50:32.902Z,99202.75
2023-04-01T06:53:08.911Z,99199.97
2023-04-01T06:55:41.992Z,99212.41
2023-04-01T06:58:20.683Z,99207.81
2023-04-01T07:00:52.868Z,99208.78
2023-04-01T07:03:25.625Z,99199.91
2023-04-01T07:05:56.178Z,99213.13
2023-04-01T07:08:27.743Z,99214.75
2023-04-01T07:11:00.465Z,99220.09
2023-04-01T07:13:36.168Z,99213.16
2023-04-01T07:16:13.301Z,99221.06
2023-04-01T07:18:46.632Z,99222.03
2023-04-01T07:21:25.775Z,99228.34
2023-04-01T07:23:56.538Z,99231.94
2023-04-01T07:26:26.269Z,99228.44
2023-04-01T07:28:55.040Z,99231.06
2023-04-01T07:31:42.119Z,99242.50
2023-04-01T07:34:19.546Z,99235.31
2023-04-01T07:36:55.160Z,99234.44
2023-04-01T07:39:38.530Z,99250.38
2023-04-01T07:42:17.851Z,99242.63
2023-04-01T07:45:01.238Z,99249.94
2023-04-01T07:47:43.553Z,99251.72
2023-04-01T07:50:19.025Z,99260.41
2023-04-01T07:52:57.017Z,99261.25
2023-04-01T07:55:31.239Z,99267.63
2023-04-01T07:58:05.027Z,99275.59
2023-04-01T08:00:42.348Z,99269.34
2023-04-01T08:03:21.608Z,99274.50
2023-04-01T08:05:57.596Z,99269.28
2023-04-01T08:08:38.143Z,99276.22
2023-04-01T08:11:14.619Z,99284.16
2023-04-01T08:13:48.133Z,99284.03
2023-04-01T08:16:21.993Z,99289.38
2023-04-01T08:19:01.701Z,99292.81
2023-04-01T08:21:34.753Z,99298.03
2023-04-01T08:24:16.107Z,99304.34
2023-04-01T08:26:48.828Z,99312.38
2023-04-01T08:29:21.971Z,99311.72
2023-04-01T08:31:57.805Z,99315.03
2023-04-01T08:34:28.226Z,99313.91
2023-04-01T08:37:02.387Z,99324.41
2023-04-01T08:39:45.080Z,99318.03
2023-04-01T08:42:29.693Z,99320.72
2023-04-01T08:45:17.847Z,99321.63
2023-04-01T08:47:59.196Z,99328.63
2023-04-01T08:51:04.632Z,99335.63
2023-04-01T08:53:50.941Z,99337.84
2023-04-01T08:56:26.025Z,99342.28
2023-04-01T08:59:16.578Z,99332.44
2023-04-01T09:02:17.184Z,99346.59
2023-04-01T09:05:07.626Z,99345.56
2023-04-01T09:07:47.720Z,99346.66
2023-04-01T09:10:36.465Z,99349.09
2023-04-01T09:13:40.009Z,99346.31
2023-04-01T09:16:32.929Z,99344.34
2023-04-01T09:19:26.365Z,99349.59
2023-04-01T09:22:19.271Z,99350.38
2023-04-01T09:25:07.963Z,99358.41
2023-04-01T09:27:45.579Z,99371.78
2023-04-01T09:30:41.600Z,99364.56
2023-04-01T09:33:44.922Z,99371.66
2023-04-01T09:36:27.019Z,99373.44
2023-04-01T09:39:00.924Z,99375.88
2023-04-01T09:41:33.335Z,99385.78
2023-04-01T09:44:04.322Z,99381.53
2023-04-01T09:47:03.341Z,99388.69
2023-04-01T09:50:02.166Z,99396.50
2023-04-01T09:52:40.978Z,99388.25
2023-04-01T09:55:23.884Z,99394.25
2023-04-01T09:58:21.220Z,99401.38
2023-04-01T10:01:07.015Z,99409.25
2023-04-01T10:04:09.179Z,99402.81
2023-04-01T10:07:08.764Z,99405.53
2023-04-01T10:10:25.736Z,99410.78
2023-04-01T10:13:30.613Z,99416.41
2023-04-01T10:16:27.832Z,99412.91
2023-04-01T10:19:24.357Z,99422.63
2023-04-01T10:22:36.681Z,99421.75
2023-04-01T10:25:31.639Z,99430.41
2023-04-01T10:28:31.888Z,99422.13
2023-04-01T10:31:37.750Z,99424.88
2023-04-01T10:34:42.905Z,99430.22
2023-04-01T10:37:25.297Z,99431.16
2023-04-01T10:40:26.444Z,99445.13
2023-04-01T10:43:25.882Z,99428.16
2023-04-01T10:46:18.305Z,99438.50
2023-04-01T10:49:23.379Z,99446.19
2023-04-01T10:52:35.021Z,99445.22
2023-04-01T10:55:36.918Z,99448.72
2023-04-01T10:58:27.674Z,99446.91
2023-04-01T11:01:37.844Z,99455.75
2023-04-01T11:04:48.534Z,99458.59
2023-04-01T11:08:18.150Z,99458.72
2023-04-01T11:11:26.683Z,99458.97
2023-04-01T11:14:29.197Z,99460.69
2023-04-01T11:17:44.461Z,99470.75
2023-04-01T11:20:45.044Z,99471.97
2023-04-01T11:23:35.739Z,99474.94
2023-04-01T11:26:10.234Z,99474.78
2023-04-01T11:29:09.286Z,99475.44
2023-04-01T11:31:50.215Z,99477.16
2023-04-01T11:34:33.569Z,99485.97
2023-04-01T11:37:13.020Z,99485.97
2023-04-01T11:39:55.076Z,99496.00
2023-04-01T11:42:34.386Z,99500.38
2023-04-01T11:45:16.636Z,99503.00
2023-04-01T11:48:31.780Z,99509.34
2023-04-01T11:51:13.773Z,99515.25
2023-04-01T11:53:49.586Z,99514.91
2023-04-01T11:56:39.401Z,99521.66
2023-04-01T11:59:33.550Z,99531.03
2023-04-01T12:02:10.163Z,99530.59
2023-04-01T12:05:00.466Z,99543.94
2023-04-01T12:07:45.357Z,99535.78
2023-04-01T12:10:19.483Z,99539.06
2023-04-01T12:13:01.729Z,99547.81
2023-04-01T12:15:34.591Z,99544.84
2023-04-01T12:18:10.044Z,99549.94
2023-04-01T12:20:45.658Z,99555.84
2023-04-01T12:23:31.006Z,99557.53
2023-04-01T12:26:12.621Z,99561.41
2023-04-01T12:28:56.359Z,99565.19
2023-04-01T12:31:37.876Z,99567.31
2023-04-01T12:34:36.832Z,99569.53
2023-04-01T12:37:12.101Z,99567.88
2023-04-01T12:40:03.883Z,99573.91
2023-04-01T12:42:50.646Z,99584.81
2023-04-01T12:45:31.464Z,99575.97
2023-04-01T12:48:31.957Z,99595.47
2023-04-01T12:51:30.068Z,99597.28
2023-04-01T12:54:25.780Z,99602.97
2023-04-01T12:57:05.757Z,99600.44
2023-04-01T13:00:23.077Z,99609.16
2023-04-01T13:03:10.365Z,99604.03
2023-04-01T13:06:02.003Z,99612.75
2023-04-01T13:08:41.434Z,99622.59
2023-04-01T13:11:15.372Z,99615.19
2023-04-01T13:14:07.413Z,99620.56
2023-04-01T13:16:39.802Z,99622.50
2023-04-01T13:19:16.382Z,99622.50
2023-04-01T13:21:56.623Z,99624.34
2023-04-01T13:24:34.209Z,99628.28
2023-04-01T13:27:10.909Z,99632.03
2023-04-01T13:29:42.736Z,99642.19
2023-04-01T13:32:40.700Z,99634.28
2023-04-01T13:35:23.501Z,99635.00
2023-04-01T13:38:05.761Z,99642.19
2023-04-01T13:40:49.325Z,99646.63
2023-04-01T13:43:26.443Z,99644.75
2023-04-01T13:46:16.384Z,99643.72
2023-04-01T13:49:13.846Z,99650.56
2023-04-01T13:52:10.950Z,99651.53
2023-04-01T13:55:07.798Z,99660.44
2023-04-01T13:57:49.660Z,99656.88
2023-04-01T14:00:40.910Z,99658.31
2023-04-01T14:03:30.446Z,99661.72
2023-04-01T14:06:30.090Z,99667.81
2023-04-01T14:09:13.206Z,99666.78
2023-04-01T14:11:50.754Z,99671.38
2023-04-01T14:14:33.287Z,99673.25
2023-04-01T14:17:24.072Z,99674.88
2023-04-01T14:20:18.208Z,99676.78
2023-04-01T14:22:59.406Z,99689.22
2023-04-01T14:25:57.802Z,99685.72
2023-04-01T14:28:38.915Z,99695.66
2023-04-01T14:31:29.183Z,99694.63
2023-04-01T14:34:08.093Z,99694.50
2023-04-01T14:37:03.701Z,99702.34
2023-04-01T14:40:01.992Z,99702.19
2023-04-01T14:42:55.879Z,99692.22
2023-04-01T14:46:08.342Z,99707.16
2023-04-01T14:48:39.881Z,99712.50
2023-04-01T14:51:15.830Z,99709.78
2023-04-01T14:53:46.863Z,99708.91
2023-04-01T14:56:34.845Z,99721.50
2023-04-01T14:59:06.655Z,99720.50
2023-04-01T15:01:48.380Z,99715.81
2023-04-01T15:04:50.045Z,99719.47
2023-04-01T15:07:28.414Z,99720.56
2023-04-01T15:10:09.087Z,99728.72
2023-04-01T15:12:48.675Z,99729.69
2023-04-01T15:15:27.060Z,99735.66
2023-04-01T15:18:11.232Z,99730.38
2023-04-01T15:21:05.277Z,99740.09
2023-04-01T15:23:54.949Z,99746.38
2023-04-01T15:26:35.501Z,99746.44
2023-04-01T15:29:21.051Z,99754.31
2023-04-01T15:31:59.139Z,99749.91
2023-04-01T15:34:35.346Z,99759.56
2023-04-01T15:37:14.554Z,99764.69
2023-04-01T15:39:59.548Z,99760.00
2023-04-01T15:42:56.597Z,99765.53
2023-04-01T15:45:41.286Z,99773.53
2023-04-01T15:48:27.534Z,99771.63
2023-04-01T15:51:13.946Z,99770.97
2023-04-01T15:53:57.231Z,99774.75
2023-04-01T15:56:40.878Z,99784.72
2023-04-01T15:59:23.171Z,99788.47
2023-04-01T16:02:01.833Z,99791.34
2023-04-01T16:04:51.638Z,99791.69
2023-04-01T16:07:32.317Z,99789.44
2023-04-01T16:10:18.459Z,99798.50
2023-04-01T16:13:04.199Z,99797.84
2023-04-01T16:15:40.377Z,99802.38
2023-04-01T16:18:26.130Z,99814.06
2023-04-01T16:21:00.018Z,99818.56
2023-04-01T16:23:37.867Z,99810.72
2023-04-01T16:26:11.332Z,99819.72
2023-04-01T16:28:45.362Z,99820.75
2023-04-01T16:31:27.764Z,99814.69
2023-04-01T16:34:03.711Z,99830.72
2023-04-01T16:36:40.260Z,99836.00
2023-04-01T16:39:31.878Z,99826.97
2023-04-01T16:42:18.012Z,99835.91
2023-04-01T16:44:56.297Z,99844.03
2023-04-01T16:47:32.349Z,99842.31
2023-04-01T16:50:08.496Z,99847.72
2023-04-01T16:53:00.694Z,99851.56
2023-04-01T16:55:37.846Z,99858.53
2023-04-01T16:58:05.825Z,99857.53
2023-04-01T17:00:42.200Z,99864.63
2023-04-01T17:03:18.352Z,99871.63
2023-04-01T17:06:01.106Z,99872.50
2023-04-01T17:08:36.878Z,99875.38
2023-04-01T17:11:12.807Z,99877.44
2023-04-01T17:13:49.729Z,99883.72
2023-04-01T17:16:36.081Z,99888.91
2023-04-01T17:19:13.302Z,99886.16
2023-04-01T17:21:54.136Z,99898.53
2023-04-01T17:24:35.686Z,99901.25
2023-04-01T17:27:16.388Z,99903.09
2023-04-01T17:30:07.373Z,99909.53
2023-04-01T17:32:50.707Z,99916.75
2023-04-01T17:35:26.601Z,99915.13
2023-04-01T17:38:08.380Z,99916.00
2023-04-01T17:40:53.644Z,99922.25
2023-04-01T17:43:26.964Z,99930.34
2023-04-01T17:45:57.212Z,99940.16
2023-04-01T17:48:41.545Z,99945.47
2023-04-01T17:51:26.973Z,99935.69
2023-04-01T17:54:04.726Z,99942.88
2023-04-01T17:56:43.774Z,99955.53
2023-04-01T17:59:24.249Z,99953.72
2023-04-01T18:02:01.694Z,99957.22
2023-04-01T18:04:42.726Z,99951.09
2023-04-01T18:07:26.181Z,99956.31
2023-04-01T18:10:06.990Z,99969.75
2023-04-01T18:12:57.355Z,99965.31
2023-04-01T18:15:35.050Z,99974.34
2023-04-01T18:18:29.164Z,99973.44
2023-04-01T18:21:04.731Z,99983.09
2023-04-01T18:23:44.538Z,99988.41
2023-04-01T18:26:22.127Z,99993.72
2023-04-01T18:28:57.368Z,99999.91
2023-04-01T18:31:28.415Z,100003.41
2023-04-01T18:34:00.523Z,100007.00
2023-04-01T18:36:39.970Z,100019.44
2023-04-01T18:39:13.612Z,100023.03
2023-04-01T18:41:53.831Z,100033.84
2023-04-01T18:44:32.965Z,100030.38
2023-04-01T18:47:09.377Z,100038.03
2023-04-01T18:49:47.163Z,100047.16
2023-04-01T18:52:22.467Z,100051.00
2023-04-01T18:55:29.684Z,100060.00
2023-04-01T18:58:13.511Z,100069.03
2023-04-01T19:00:47.904Z,100071.88
2023-04-01T19:03:24.328Z,100069.31
2023-04-01T19:05:54.844Z,100084.50
2023-04-01T19:08:30.157Z,100091.25
2023-04-01T19:11:12.166Z,100095.63
2023-04-01T19:13:52.386Z,100103.75
2023-04-01T19:16:30.656Z,100103.88
2023-04-01T19:19:08.672Z,100108.47
2023-04-01T19:21:39.256Z,100118.38
2023-04-01T19:24:44.228Z,100114.91
2023-04-01T19:27:20.320Z,100133.56
2023-04-01T19:30:02.713Z,100133.78
2023-04-01T19:32:45.560Z,100145.38
2023-04-01T19:35:25.994Z,100145.25
2023-04-01T19:37:59.793Z,100143.59
2023-04-01T19:40:50.923Z,100152.50
2023-04-01T19:43:35.832Z,100150.06
2023-04-01T19:46:15.968Z,100161.81
2023-04-01T19:48:58.318Z,100162.56
2023-04-01T19:51:33.851Z,100166.09
2023-04-01T19:54:13.866Z,100174.34
2023-04-01T19:56:48.910Z,100182.31
2023-04-01T19:59:26.250Z,100186.75
2023-04-01T20:02:01.366Z,100198.28
2023-04-01T20:04:35.180Z,100209.16
2023-04-01T20:07:09.422Z,100205.72
2023-04-01T20:09:56.134Z,100212.13
2023-04-01T20:12:37.773Z,100220.97
2023-04-01T20:15:22.405Z,100215.56
2023-04-01T20:17:53.238Z,100236.00
2023-04-01T20:20:28.284Z,100241.53
2023-04-01T20:23:27.946Z,100246.31
2023-04-01T20:26:01.042Z,100255.25
2023-04-01T20:28:44.076Z,100273.03
2023-04-01T20:31:36.949Z,100262.47
2023-04-01T20:34:19.362Z,100283.75
2023-04-01T20:37:14.074Z,100286.56
2023-04-01T20:40:06.694Z,100284.78
2023-04-01T20:43:09.819Z,100289.19
2023-04-01T20:45:40.035Z,100295.50
2023-04-01T20:48:27.759Z,100295.47
2023-04-01T20:51:01.173Z,100307.03
2023-04-01T20:53:39.221Z,100313.28
2023-04-01T20:56:26.565Z,100308.84
2023-04-01T20:59:02.568Z,100331.16
2023-04-01T21:01:47.226Z,100324.03
2023-04-01T21:04:29.092Z,100326.63
2023-04-01T21:07:13.080Z,100340.91
2023-04-01T21:09:55.126Z,100349.13
2023-04-01T21:12:33.521Z,100347.53
2023-04-01T21:15:21.228Z,100361.81
2023-04-01T21:18:07.037Z,100370.78
2023-04-01T21:20:49.306Z,100365.44
2023-04-01T21:23:31.442Z,100384.16
2023-04-01T21:26:12.930Z,100390.53
2023-04-01T21:29:01.540Z,100397.53
2023-04-01T21:31:47.950Z,100404.59
2023-04-01T21:34:44.525Z,100403.78
2023-04-01T21:37:46.796Z,100415.41
2023-04-01T21:40:52.107Z,100425.34
2023-04-01T21:43:48.296Z,100422.69
2023-04-01T21:46:44.574Z,100429.78
2023-04-01T21:49:26.932Z,100430.00
2023-04-01T21:52:28.008Z,100435.38
2023-04-01T21:55:31.823Z,100452.31
2023-04-01T21:58:46.567Z,100465.63
2023-04-01T22:01:40.098Z,100469.25
2023-04-01T22:04:39.112Z,100473.59
2023-04-01T22:07:16.855Z,100479.00
2023-04-01T22:09:54.166Z,100487.06
2023-04-01T22:12:30.430Z,100487.16
2023-04-01T22:15:11.115Z,100497.78
2023-04-01T22:17:52.974Z,100493.34
2023-04-01T22:20:29.133Z,100500.41
2023-04-01T22:23:15.675Z,100504.84
2023-04-01T22:25:50.911Z,100518.16
2023-04-01T22:28:24.208Z,100524.38
2023-04-01T22:30:53.820Z,100527.97
2023-04-01T22:33:34.165Z,100533.31
2023-04-01T22:36:08.662Z,100552.81
2023-04-01T22:39:04.699Z,100546.69
2023-04-01T22:41:47.332Z,100557.34
2023-04-01T22:44:22.346Z,100559.13
2023-04-01T22:47:00.373Z,100564.44
2023-04-01T22:49:37.058Z,100567.13
2023-04-01T22:52:10.958Z,100584.06
2023-04-01T22:54:43.000Z,100584.06
2023-04-01T22:57:16.678Z,100589.41
2023-04-01T22:59:50.859Z,100596.56
2023-04-01T23:02:28.190Z,100600.13
2023-04-01T23:05:00.455Z,100608.13
2023-04-01T23:07:47.361Z,100625.84
2023-04-01T23:10:22.413Z,100614.34
2023-04-01T23:12:53.713Z,100623.22
2023-04-01T23:15:22.666Z,100625.00
2023-04-01T23:18:03.546Z,100625.00
2023-04-01T23:20:56.151Z,100646.28
2023-04-01T23:23:35.951Z,100635.66
2023-04-01T23:26:10.281Z,100646.28
2023-04-01T23:28:44.986Z,100648.94
2023-04-01T23:31:31.200Z,100662.25
2023-04-01T23:34:01.558Z,100661.34
2023-04-01T23:36:33.310Z,100664.94
2023-04-01T23:39:05.556Z,100674.69
2023-04-01T23:41:35.465Z,100676.47
2023-04-01T23:44:09.640Z,100679.97
2023-04-01T23:46:39.238Z,100687.13
2023-04-01T23:49:14.183Z,100695.97
2023-04-01T23:51:55.575Z,100689.78
2023-04-01T23:54:32.708Z,100711.06
2023-04-01T23:57:01.045Z,100719.91
2023-04-01T23:59:34.427Z,100727.88
